createdAt,value
2024-05-09T00:06:16.183Z,99412.59
2024-05-09T00:16:23.154Z,99408.42
2024-05-09T00:26:27.299Z,99414.77
2024-05-09T00:36:31.522Z,99418.39
2024-05-09T00:46:35.480Z,99426.35
2024-05-09T00:56:40.166Z,99422.02
2024-05-09T01:06:43.907Z,99428.45
2024-05-09T01:16:47.736Z,99428.95
2024-05-09T01:26:51.572Z,99424.74
2024-05-09T01:36:55.344Z,99423.85
2024-05-09T01:46:59.237Z,99425.09
2024-05-09T01:57:03.630Z,99428.55
2024-05-09T02:07:07.852Z,99421.64
2024-05-09T02:17:11.738Z,99415.08
2024-05-09T02:27:16.230Z,99412.55
2024-05-09T02:37:20.250Z,99407.61
2024-05-09T02:47:24.295Z,99405.50
2024-05-09T02:57:28.191Z,99407.15
2024-05-09T03:07:32.191Z,99416.54
2024-05-09T03:17:36.558Z,99414.52
2024-05-09T03:27:40.547Z,99418.70
2024-05-09T03:37:44.864Z,99422.08
2024-05-09T03:47:49.241Z,99423.80
2024-05-09T03:57:53.743Z,99421.04
2024-05-09T04:07:57.560Z,99414.80
2024-05-09T04:18:05.811Z,99417.70
2024-05-09T04:28:09.703Z,99427.98
2024-05-09T04:38:14.665Z,99428.56
2024-05-09T04:48:19.553Z,99429.34
2024-05-09T04:58:23.425Z,99433.73
2024-05-09T05:08:27.969Z,99441.09
2024-05-09T05:18:35.447Z,99444.05
2024-05-09T05:28:39.588Z,99450.23
2024-05-09T05:38:44.856Z,99465.06
2024-05-09T05:48:49.448Z,99464.04
2024-05-09T05:58:57.442Z,99452.39
2024-05-09T06:09:01.306Z,99449.47
2024-05-09T06:19:05.807Z,99446.33
2024-05-09T06:29:10.424Z,99436.89
2024-05-09T06:39:14.612Z,99435.78
2024-05-09T06:49:19.168Z,99433.86
2024-05-09T06:59:23.260Z,99434.90
2024-05-09T07:09:30.329Z,99429.15
2024-05-09T07:19:37.506Z,99428.01
2024-05-09T07:29:41.952Z,99424.13
2024-05-09T07:39:45.941Z,99432.99
2024-05-09T07:51:32.752Z,99432.61
2024-05-09T08:00:26.786Z,99430.70
2024-05-09T08:10:37.638Z,99418.02
2024-05-09T08:20:48.842Z,99420.27
2024-05-09T08:30:52.974Z,99416.88
2024-05-09T08:40:57.240Z,99412.03
2024-05-09T08:51:04.743Z,99415.94
2024-05-09T09:01:09.182Z,99421.17
2024-05-09T09:11:13.332Z,99422.51
2024-05-09T09:21:17.902Z,99423.17
2024-05-09T09:31:22.264Z,99422.69
2024-05-09T09:41:28.967Z,99420.85
2024-05-09T09:51:37.279Z,99417.30
2024-05-09T10:01:41.552Z,99411.22
2024-05-09T10:11:51.831Z,99408.46
2024-05-09T10:22:05.729Z,99405.55
2024-05-09T10:32:13.602Z,99400.05
2024-05-09T10:42:18.885Z,99392.23
2024-05-09T10:52:23.313Z,99388.65
2024-05-09T11:02:27.353Z,99380.89
2024-05-09T11:12:31.726Z,99371.57
2024-05-09T11:22:39.487Z,99362.19
2024-05-09T11:32:43.362Z,99362.15
2024-05-09T11:42:49.940Z,99351.41
2024-05-09T11:52:55.593Z,99353.57
2024-05-09T12:03:00.012Z,99347.00
2024-05-09T12:13:06.025Z,99339.67
2024-05-09T12:23:11.530Z,99327.53
2024-05-09T12:33:15.542Z,99325.54
2024-05-09T12:43:43.190Z,99319.08
2024-05-09T12:53:47.137Z,99302.70
2024-05-09T13:03:52.087Z,99300.08
2024-05-09T13:13:56.482Z,99290.73
2024-05-09T13:24:00.672Z,99280.64
2024-05-09T13:34:08.608Z,99278.52
2024-05-09T13:44:13.183Z,99272.38
2024-05-09T13:54:18.727Z,99270.52
2024-05-09T14:04:24.477Z,99263.96
2024-05-09T14:14:28.807Z,99249.77
2024-05-09T14:24:36.610Z,99242.25
2024-05-09T14:34:40.626Z,99241.71
2024-05-09T14:45:38.483Z,99235.96
2024-05-09T14:55:43.711Z,99226.64
2024-05-09T15:05:48.666Z,99215.44
2024-05-09T15:15:56.602Z,99205.41
2024-05-09T15:26:24.665Z,99193.12
2024-05-09T15:36:28.848Z,99187.33
2024-05-09T15:46:32.882Z,99179.16
2024-05-09T15:56:36.741Z,99177.86
2024-05-09T16:06:40.794Z,99175.23
2024-05-09T16:16:47.437Z,99175.44
2024-05-09T16:26:51.678Z,99175.15
2024-05-09T16:36:55.876Z,99175.59
2024-05-09T16:46:59.911Z,99179.20
2024-05-09T16:57:08.265Z,99181.19
2024-05-09T17:07:12.599Z,99180.98
2024-05-09T17:17:17.067Z,99182.63
2024-05-09T17:27:21.171Z,99176.09
2024-05-09T17:37:52.666Z,99178.60
2024-05-09T17:47:57.059Z,99182.38
2024-05-09T17:58:01.534Z,99186.15
2024-05-09T18:08:06.897Z,99185.95
2024-05-09T18:18:11.776Z,99194.55
2024-05-09T18:28:16.568Z,99203.70
2024-05-09T18:38:24.900Z,99212.34
2024-05-09T18:48:28.987Z,99221.35
2024-05-09T18:58:33.386Z,99231.15
2024-05-09T19:08:37.804Z,99242.77
2024-05-09T19:18:42.283Z,99248.38
2024-05-09T19:28:46.815Z,99258.77
2024-05-09T19:38:51.619Z,99260.58
2024-05-09T19:48:55.751Z,99262.26
2024-05-09T19:59:00.247Z,99264.11
2024-05-09T20:09:04.260Z,99257.98
2024-05-09T20:19:08.399Z,99264.02
2024-05-09T20:29:12.327Z,99260.67
2024-05-09T20:39:17.948Z,99256.34
2024-05-09T20:49:23.078Z,99261.25
2024-05-09T20:59:27.253Z,99269.03
2024-05-09T21:09:31.037Z,99273.83
2024-05-09T21:19:35.355Z,99270.04
2024-05-09T21:29:39.418Z,99271.89
2024-05-09T21:39:43.488Z,99270.73
2024-05-09T21:49:47.542Z,99268.16
2024-05-09T21:59:51.399Z,99271.29
2024-05-09T22:09:55.455Z,99273.48
2024-05-09T22:19:59.647Z,99268.36
2024-05-09T22:30:06.982Z,99267.16
2024-05-09T22:40:20.457Z,99268.06
2024-05-09T22:50:33.113Z,99268.39
2024-05-09T23:00:38.110Z,99262.78
2024-05-09T23:10:42.406Z,99257.17
2024-05-09T23:20:46.203Z,99250.83
2024-05-09T23:30:49.979Z,99242.17
2024-05-09T23:40:53.924Z,99237.00
2024-05-09T23:50:57.758Z,99236.67
